Time;durP1;ratioP1;P1;durP2;ratioP2;P2;SDS_P1;SDS_P2;PMS_P1;PMS_P2;Temp;Humidity;BMP_temperature;BMP_pressure;BME280_temperature;BME280_humidity;BME280_pressure;Samples;Min_cycle;Max_cycle;Signal;HPM_P1;HPM_P2
2022/04/19 00:00:36;;;;;;;0.10;0.10;;;;;;;;;;5083485;28;20288;-75
2022/04/19 00:03:02;;;;;;;0.10;0.10;;;;;;;;;;5111753;28;20269;-76
2022/04/19 00:05:28;;;;;;;0.10;0.10;;;;;;;;;;5082775;28;20266;-76
2022/04/19 00:07:55;;;;;;;0.10;0.10;;;;;;;;;;5112868;28;20228;-78
2022/04/19 00:10:22;;;;;;;0.10;0.10;;;;;;;;;;5080423;28;20420;-76
2022/04/19 00:12:49;;;;;;;0.10;0.10;;;;;;;;;;5114940;28;20200;-75
2022/04/19 00:15:17;;;;;;;0.10;0.10;;;;;;;;;;5078888;28;20206;-77
2022/04/19 00:17:44;;;;;;;0.10;0.10;;;;;;;;;;5115664;28;20425;-76
2022/04/19 00:20:11;;;;;;;0.10;0.10;;;;;;;;;;5077046;28;20202;-76
2022/04/19 00:22:38;;;;;;;0.10;0.10;;;;;;;;;;5101189;28;20203;-77
2022/04/19 00:25:06;;;;;;;0.10;0.10;;;;;;;;;;5086044;28;20205;-77
2022/04/19 00:27:34;;;;;;;0.10;0.10;;;;;;;;;;5074437;28;20207;-76
2022/04/19 00:30:00;;;;;;;0.10;0.10;;;;;;;;;;5086185;28;20210;-76
2022/04/19 00:32:26;;;;;;;0.10;0.10;;;;;;;;;;5108647;28;20241;-76
2022/04/19 00:34:52;;;;;;;0.10;0.10;;;;;;;;;;5085983;28;20210;-76
2022/04/19 00:37:19;;;;;;;0.10;0.10;;;;;;;;;;5108294;28;20244;-77
2022/04/19 00:39:45;;;;;;;0.10;0.10;;;;;;;;;;5086029;28;20241;-75
2022/04/19 00:42:11;;;;;;;0.10;0.10;;;;;;;;;;5108097;28;20482;-76
2022/04/19 00:44:39;;;;;;;0.10;0.10;;;;;;;;;;5085904;28;20211;-76
2022/04/19 00:47:07;;;;;;;0.10;0.10;;;;;;;;;;5108130;28;20247;-77
2022/04/19 00:49:34;;;;;;;0.10;0.10;;;;;;;;;;5085482;28;20256;-77
2022/04/19 00:52:00;;;;;;;0.10;0.10;;;;;;;;;;5106973;28;20247;-77
2022/04/19 00:54:27;;;;;;;0.10;0.10;;;;;;;;;;5086640;28;20213;-77
2022/04/19 00:56:53;;;;;;;0.10;0.10;;;;;;;;;;5104775;28;20297;-77
2022/04/19 00:59:20;;;;;;;0.10;0.10;;;;;;;;;;5088684;28;20201;-76
2022/04/19 01:01:48;;;;;;;0.10;0.10;;;;;;;;;;5102543;28;20253;-76
2022/04/19 01:04:14;;;;;;;0.10;0.10;;;;;;;;;;5090636;28;20259;-78
2022/04/19 01:06:40;;;;;;;0.10;0.10;;;;;;;;;;5101043;28;20250;-76
2022/04/19 01:09:07;;;;;;;0.10;0.10;;;;;;;;;;5091660;28;20227;-77
2022/04/19 01:14:18;;;;;;;0.10;0.10;;;;;;;;;;5088690;28;20214;-76
2022/04/19 01:16:44;;;;;;;0.10;0.10;;;;;;;;;;5101578;28;20296;-77
2022/04/19 01:19:14;;;;;;;0.10;0.10;;;;;;;;;;5091094;28;20248;-76
2022/04/19 01:21:45;;;;;;;0.10;0.10;;;;;;;;;;5100235;28;20240;-76
2022/04/19 01:24:13;;;;;;;0.10;0.10;;;;;;;;;;5091008;28;20221;-76
2022/04/19 01:26:41;;;;;;;0.10;0.10;;;;;;;;;;5100383;28;20506;-77
2022/04/19 01:29:07;;;;;;;0.10;0.10;;;;;;;;;;5091579;28;20259;-76
2022/04/19 01:31:34;;;;;;;0.10;0.10;;;;;;;;;;5098560;28;20243;-76
2022/04/19 01:34:01;;;;;;;0.10;0.10;;;;;;;;;;5093069;28;20204;-76
2022/04/19 01:36:27;;;;;;;0.10;0.10;;;;;;;;;;5096609;28;20305;-76
2022/04/19 01:38:55;;;;;;;0.10;0.10;;;;;;;;;;5094743;28;20524;-75
2022/04/19 01:41:21;;;;;;;0.10;0.10;;;;;;;;;;5087121;28;20283;-76
2022/04/19 01:43:47;;;;;;;0.10;0.10;;;;;;;;;;5096036;28;20216;-76
2022/04/19 01:46:15;;;;;;;0.10;0.10;;;;;;;;;;5092990;28;20337;-76
2022/04/19 01:48:42;;;;;;;0.10;0.10;;;;;;;;;;5098267;28;20225;-77
2022/04/19 01:51:08;;;;;;;0.10;0.10;;;;;;;;;;5091513;28;20255;-77
2022/04/19 01:53:34;;;;;;;0.10;0.10;;;;;;;;;;5100193;28;20280;-75
2022/04/19 01:56:02;;;;;;;0.10;0.10;;;;;;;;;;5089562;28;20246;-76
2022/04/19 01:58:28;;;;;;;0.10;0.10;;;;;;;;;;5101566;28;20359;-76
2022/04/19 02:00:54;;;;;;;0.10;0.10;;;;;;;;;;5087433;28;20579;-76
2022/04/19 02:03:21;;;;;;;0.10;0.10;;;;;;;;;;5103307;28;20205;-76
2022/04/19 02:05:47;;;;;;;0.10;0.10;;;;;;;;;;5085204;28;20412;-76
2022/04/19 02:08:13;;;;;;;0.10;0.10;;;;;;;;;;5105427;28;20395;-77
2022/04/19 02:10:39;;;;;;;0.10;0.10;;;;;;;;;;5083074;28;20273;-77
2022/04/19 02:13:07;;;;;;;0.10;0.10;;;;;;;;;;5107265;28;20243;-77
2022/04/19 02:15:33;;;;;;;0.10;0.10;;;;;;;;;;5081234;28;20284;-77
2022/04/19 02:17:59;;;;;;;0.10;0.10;;;;;;;;;;5108783;28;20193;-77
2022/04/19 02:20:26;;;;;;;0.10;0.10;;;;;;;;;;5078509;28;20321;-77
2022/04/19 02:22:53;;;;;;;0.10;0.10;;;;;;;;;;5110558;28;20443;-77
2022/04/19 02:25:19;;;;;;;0.10;0.10;;;;;;;;;;5077365;28;20210;-76
2022/04/19 02:27:46;;;;;;;0.10;0.10;;;;;;;;;;5112626;28;20216;-75
2022/04/19 02:30:15;;;;;;;0.10;0.10;;;;;;;;;;5075106;28;20225;-76
2022/04/19 02:32:41;;;;;;;0.10;0.10;;;;;;;;;;5113899;28;20194;-77
2022/04/19 02:35:09;;;;;;;0.10;0.10;;;;;;;;;;5073970;28;20212;-75
2022/04/19 02:37:35;;;;;;;0.10;0.10;;;;;;;;;;5115290;28;20314;-76
2022/04/19 02:40:02;;;;;;;0.10;0.10;;;;;;;;;;5083406;28;20496;-77
2022/04/19 02:42:28;;;;;;;0.10;0.10;;;;;;;;;;5105683;28;20329;-76
2022/04/19 02:44:54;;;;;;;0.10;0.10;;;;;;;;;;5083309;28;20495;-76
2022/04/19 02:47:22;;;;;;;0.10;0.10;;;;;;;;;;5105668;28;20238;-76
2022/04/19 02:49:49;;;;;;;0.10;0.10;;;;;;;;;;5083262;28;20274;-76
2022/04/19 02:52:17;;;;;;;0.10;0.10;;;;;;;;;;5105623;28;20239;-76
2022/04/19 02:54:43;;;;;;;0.10;0.10;;;;;;;;;;5083245;28;20205;-76
2022/04/19 02:57:09;;;;;;;0.10;0.10;;;;;;;;;;5105597;28;20233;-76
2022/04/19 02:59:36;;;;;;;0.10;0.10;;;;;;;;;;5083489;28;20206;-77
2022/04/19 03:02:02;;;;;;;0.10;0.10;;;;;;;;;;5104531;28;20258;-76
2022/04/19 03:04:30;;;;;;;0.10;0.10;;;;;;;;;;5084123;28;20204;-77
2022/04/19 03:06:56;;;;;;;0.10;0.10;;;;;;;;;;5102710;28;20251;-77
2022/04/19 03:09:22;;;;;;;0.10;0.10;;;;;;;;;;5085616;28;20230;-77
2022/04/19 03:11:49;;;;;;;0.10;0.10;;;;;;;;;;5100855;28;20244;-76
2022/04/19 03:14:17;;;;;;;0.10;0.10;;;;;;;;;;5087750;28;20266;-76
2022/04/19 03:16:43;;;;;;;0.10;0.10;;;;;;;;;;5099134;28;20246;-76
2022/04/19 03:19:11;;;;;;;0.10;0.10;;;;;;;;;;5089114;28;20204;-76
2022/04/19 03:21:39;;;;;;;0.10;0.10;;;;;;;;;;5097811;28;20248;-76
2022/04/19 03:29:34;;;;;;;0.10;0.10;;;;;;;;;;5083112;28;20258;-76
2022/04/19 03:32:01;;;;;;;0.10;0.10;;;;;;;;;;5103822;28;20310;-76
2022/04/19 03:34:27;;;;;;;0.10;0.10;;;;;;;;;;5084169;28;20541;-76
2022/04/19 03:36:55;;;;;;;0.10;0.10;;;;;;;;;;5101747;28;20238;-76
2022/04/19 03:39:21;;;;;;;0.10;0.10;;;;;;;;;;5085884;28;20205;-77
2022/04/19 03:41:47;;;;;;;0.10;0.10;;;;;;;;;;5099724;28;20242;-76
2022/04/19 03:44:14;;;;;;;0.10;0.10;;;;;;;;;;5087759;28;20204;-76
2022/04/19 03:49:20;;;;;;;0.10;0.10;;;;;;;;;;5084954;28;20227;-76
2022/04/19 03:51:46;;;;;;;0.10;0.10;;;;;;;;;;5099713;28;20277;-76
2022/04/19 03:54:14;;;;;;;0.10;0.10;;;;;;;;;;5087950;28;20207;-77
2022/04/19 03:56:41;;;;;;;0.10;0.10;;;;;;;;;;5097942;28;20305;-77
2022/04/19 03:59:09;;;;;;;0.10;0.10;;;;;;;;;;5088850;28;20208;-76
2022/04/19 04:01:37;;;;;;;0.10;0.10;;;;;;;;;;5096541;28;20568;-76
2022/04/19 04:04:04;;;;;;;0.10;0.10;;;;;;;;;;5090012;28;20275;-76
2022/04/19 04:06:30;;;;;;;0.10;0.10;;;;;;;;;;5094375;28;20245;-77
2022/04/19 04:08:57;;;;;;;0.10;0.10;;;;;;;;;;5092666;28;20279;-78
2022/04/19 04:11:24;;;;;;;0.10;0.10;;;;;;;;;;5093319;28;20230;-76
2022/04/19 04:13:51;;;;;;;0.10;0.10;;;;;;;;;;5093496;28;20205;-75
2022/04/19 04:16:17;;;;;;;0.10;0.10;;;;;;;;;;5091399;28;20516;-77
2022/04/19 04:18:43;;;;;;;0.10;0.10;;;;;;;;;;5095383;28;20478;-76
2022/04/19 04:21:09;;;;;;;0.10;0.10;;;;;;;;;;5088806;28;20431;-77
2022/04/19 04:23:36;;;;;;;0.10;0.10;;;;;;;;;;5097801;28;20230;-77
2022/04/19 04:26:02;;;;;;;0.10;0.10;;;;;;;;;;5087278;28;20651;-76
2022/04/19 04:28:30;;;;;;;0.10;0.10;;;;;;;;;;5099580;28;20216;-77
2022/04/19 04:30:56;;;;;;;0.10;0.10;;;;;;;;;;5085676;28;20245;-77
2022/04/19 04:33:22;;;;;;;0.10;0.10;;;;;;;;;;5101258;28;20212;-76
2022/04/19 04:35:49;;;;;;;0.10;0.10;;;;;;;;;;5083872;28;20284;-76
2022/04/19 04:38:15;;;;;;;0.10;0.10;;;;;;;;;;5102800;28;20285;-78
2022/04/19 04:40:41;;;;;;;0.10;0.10;;;;;;;;;;5081489;28;20245;-77
2022/04/19 04:43:08;;;;;;;0.10;0.10;;;;;;;;;;5105207;28;20212;-77
2022/04/19 04:45:35;;;;;;;0.10;0.10;;;;;;;;;;5083492;28;20263;-76
2022/04/19 04:50:48;;;;;;;0.10;0.10;;;;;;;;;;5060652;28;20446;-76
2022/04/19 04:53:14;;;;;;;0.10;0.10;;;;;;;;;;5107030;28;20506;-78
2022/04/19 04:55:41;;;;;;;0.10;0.10;;;;;;;;;;5085152;28;20237;-76
2022/04/19 04:58:07;;;;;;;0.10;0.10;;;;;;;;;;5108750;28;20218;-77
2022/04/19 05:00:33;;;;;;;0.10;0.10;;;;;;;;;;5083690;28;20234;-77
2022/04/19 05:03:01;;;;;;;0.10;0.10;;;;;;;;;;5110493;28;20185;-77
2022/04/19 05:05:27;;;;;;;0.10;0.10;;;;;;;;;;5081130;28;20272;-77
2022/04/19 05:07:53;;;;;;;0.10;0.10;;;;;;;;;;5112373;28;20210;-77
2022/04/19 05:10:20;;;;;;;0.20;0.20;;;;;;;;;;5079191;28;20225;-76
2022/04/19 05:12:46;;;;;;;0.10;0.10;;;;;;;;;;5113862;28;20199;-75
2022/04/19 05:15:12;;;;;;;0.10;0.10;;;;;;;;;;5076497;28;20269;-76
2022/04/19 05:17:38;;;;;;;0.10;0.10;;;;;;;;;;5116035;28;20196;-77
2022/04/19 05:20:09;;;;;;;0.10;0.10;;;;;;;;;;5085513;28;20229;-77
2022/04/19 05:22:35;;;;;;;0.10;0.10;;;;;;;;;;5073773;28;20207;-78
2022/04/19 05:25:02;;;;;;;0.10;0.10;;;;;;;;;;5085077;28;20211;-77
2022/04/19 05:27:28;;;;;;;0.10;0.10;;;;;;;;;;5107169;28;20570;-77
2022/04/19 05:29:54;;;;;;;0.10;0.10;;;;;;;;;;5084530;28;20225;-77
2022/04/19 05:32:21;;;;;;;0.10;0.10;;;;;;;;;;5107334;28;20238;-76
2022/04/19 05:34:48;;;;;;;0.10;0.10;;;;;;;;;;5084983;28;20213;-76
2022/04/19 05:37:15;;;;;;;0.10;0.10;;;;;;;;;;5107048;28;20257;-77
2022/04/19 05:39:42;;;;;;;0.10;0.10;;;;;;;;;;5084803;28;20222;-76
2022/04/19 05:42:08;;;;;;;0.10;0.10;;;;;;;;;;5106899;28;20245;-76
2022/04/19 05:44:37;;;;;;;0.10;0.10;;;;;;;;;;5084934;28;20250;-76
2022/04/19 05:47:04;;;;;;;0.10;0.10;;;;;;;;;;5106510;28;20305;-76
2022/04/19 05:49:32;;;;;;;0.10;0.10;;;;;;;;;;5084623;28;20229;-77
2022/04/19 05:51:58;;;;;;;0.10;0.10;;;;;;;;;;5104904;28;20485;-76
2022/04/19 05:54:26;;;;;;;0.10;0.10;;;;;;;;;;5085658;28;20304;-76
2022/04/19 05:56:52;;;;;;;0.10;0.10;;;;;;;;;;5103142;28;20240;-76
2022/04/19 05:59:18;;;;;;;0.10;0.10;;;;;;;;;;5087959;28;20210;-77
2022/04/19 06:07:13;;;;;;;0.10;0.10;;;;;;;;;;5107074;28;20246;-76
2022/04/19 06:09:40;;;;;;;0.10;0.10;;;;;;;;;;5084464;28;20229;-75
2022/04/19 06:12:07;;;;;;;0.10;0.10;;;;;;;;;;5106504;28;20333;-76
2022/04/19 06:14:33;;;;;;;0.10;0.10;;;;;;;;;;5084056;28;20195;-76
2022/04/19 06:17:00;;;;;;;0.10;0.10;;;;;;;;;;5104700;28;20237;-77
2022/04/19 06:19:27;;;;;;;0.10;0.10;;;;;;;;;;5085511;28;20420;-76
2022/04/19 06:21:53;;;;;;;0.10;0.10;;;;;;;;;;5104304;28;20239;-77
2022/04/19 06:24:20;;;;;;;0.10;0.10;;;;;;;;;;5086823;28;20207;-77
2022/04/19 06:26:48;;;;;;;0.10;0.10;;;;;;;;;;5101172;28;20242;-76
2022/04/19 06:29:14;;;;;;;0.10;0.10;;;;;;;;;;5088819;28;20205;-77
2022/04/19 06:31:41;;;;;;;0.10;0.10;;;;;;;;;;5100020;28;20296;-77
2022/04/19 06:34:07;;;;;;;0.10;0.10;;;;;;;;;;5086480;28;20238;-78
2022/04/19 06:36:34;;;;;;;0.10;0.10;;;;;;;;;;5097618;28;20390;-76
2022/04/19 06:39:00;;;;;;;0.10;0.10;;;;;;;;;;5092502;28;20422;-78
2022/04/19 06:41:26;;;;;;;0.13;0.13;;;;;;;;;;5094045;28;20290;-77
2022/04/19 06:43:57;;;;;;;0.10;0.10;;;;;;;;;;5094235;28;20240;-78
2022/04/19 06:46:24;;;;;;;0.10;0.10;;;;;;;;;;5094094;28;20520;-78
2022/04/19 06:48:50;;;;;;;0.10;0.10;;;;;;;;;;5095545;28;20431;-79
2022/04/19 06:51:17;;;;;;;0.17;0.17;;;;;;;;;;5092505;28;20238;-79
2022/04/19 06:53:44;;;;;;;0.10;0.10;;;;;;;;;;5096561;28;20208;-76
2022/04/19 06:56:10;;;;;;;0.10;0.10;;;;;;;;;;5090701;28;20370;-77
2022/04/19 06:58:36;;;;;;;0.10;0.10;;;;;;;;;;5098679;28;20206;-77
2022/04/19 07:01:04;;;;;;;0.10;0.10;;;;;;;;;;5088583;28;20296;-77
2022/04/19 07:03:30;;;;;;;0.10;0.10;;;;;;;;;;5100114;28;20205;-77
2022/04/19 07:05:56;;;;;;;0.10;0.10;;;;;;;;;;5086206;28;20288;-79
2022/04/19 07:08:22;;;;;;;0.10;0.10;;;;;;;;;;5102181;28;20206;-77
2022/04/19 07:10:49;;;;;;;0.10;0.10;;;;;;;;;;5084699;28;20241;-77
2022/04/19 07:13:15;;;;;;;0.10;0.10;;;;;;;;;;5104274;28;20253;-77
2022/04/19 07:15:41;;;;;;;0.10;0.10;;;;;;;;;;5082350;28;20302;-77
2022/04/19 07:18:09;;;;;;;0.10;0.10;;;;;;;;;;5105849;28;20204;-77
2022/04/19 07:28:47;;;;;;;0.10;0.10;;;;;;;;;;5095601;28;20387;-77
2022/04/19 07:31:14;;;;;;;0.10;0.10;;;;;;;;;;5090982;28;20238;-78
2022/04/19 07:33:41;;;;;;;0.10;0.10;;;;;;;;;;5097308;28;20259;-79
2022/04/19 07:36:08;;;;;;;0.10;0.10;;;;;;;;;;5089508;28;20263;-78
2022/04/19 07:38:34;;;;;;;0.10;0.10;;;;;;;;;;5098854;28;20239;-78
2022/04/19 07:41:00;;;;;;;0.10;0.10;;;;;;;;;;5087931;28;20497;-78
2022/04/19 07:43:27;;;;;;;0.10;0.10;;;;;;;;;;5100248;28;20283;-78
2022/04/19 07:45:53;;;;;;;0.10;0.10;;;;;;;;;;5083569;28;20244;-79
2022/04/19 07:48:20;;;;;;;0.10;0.10;;;;;;;;;;5104722;28;20239;-78
2022/04/19 07:50:48;;;;;;;0.10;0.10;;;;;;;;;;5083144;28;20454;-78
2022/04/19 07:53:14;;;;;;;0.10;0.10;;;;;;;;;;5104703;28;20248;-78
2022/04/19 07:55:40;;;;;;;0.10;0.10;;;;;;;;;;5081027;28;20486;-78
2022/04/19 07:58:06;;;;;;;0.10;0.10;;;;;;;;;;5106091;28;20211;-76
2022/04/19 08:00:33;;;;;;;0.10;0.10;;;;;;;;;;5079828;28;20317;-77
2022/04/19 08:02:59;;;;;;;0.10;0.10;;;;;;;;;;5108194;28;20424;-78
2022/04/19 08:05:26;;;;;;;0.10;0.10;;;;;;;;;;5078094;28;20565;-78
2022/04/19 08:07:53;;;;;;;0.10;0.10;;;;;;;;;;5109829;28;20209;-77
2022/04/19 08:10:20;;;;;;;0.10;0.10;;;;;;;;;;5076522;28;20296;-78
2022/04/19 08:12:47;;;;;;;0.10;0.10;;;;;;;;;;5111130;28;20211;-78
2022/04/19 08:15:13;;;;;;;0.10;0.10;;;;;;;;;;5074642;28;20206;-78
2022/04/19 08:17:40;;;;;;;0.10;0.10;;;;;;;;;;5113010;28;20283;-78
2022/04/19 08:20:07;;;;;;;0.10;0.10;;;;;;;;;;5079986;28;20207;-77
2022/04/19 08:22:35;;;;;;;0.10;0.10;;;;;;;;;;5118142;28;20259;-78
2022/04/19 08:25:03;;;;;;;0.10;0.10;;;;;;;;;;5086310;28;20399;-78
2022/04/19 08:27:29;;;;;;;0.10;0.10;;;;;;;;;;5109062;28;20260;-79
2022/04/19 08:29:56;;;;;;;0.00;0.00;;;;;;;;;;5086308;28;20394;-78
2022/04/19 08:32:22;;;;;;;0.10;0.10;;;;;;;;;;5109027;28;20295;-78
2022/04/19 08:34:48;;;;;;;0.00;0.00;;;;;;;;;;5086261;28;20206;-77
2022/04/19 08:37:15;;;;;;;0.10;0.10;;;;;;;;;;5108508;28;20307;-78
2022/04/19 08:39:42;;;;;;;0.07;0.07;;;;;;;;;;5086022;28;20203;-77
2022/04/19 08:42:10;;;;;;;0.10;0.10;;;;;;;;;;5108511;28;20241;-79
2022/04/19 08:44:36;;;;;;;0.10;0.10;;;;;;;;;;5086335;28;20366;-77
2022/04/19 08:47:05;;;;;;;0.10;0.10;;;;;;;;;;5107682;28;20241;-78
2022/04/19 08:49:32;;;;;;;0.00;0.00;;;;;;;;;;5086131;28;20564;-78
2022/04/19 08:51:58;;;;;;;0.10;0.10;;;;;;;;;;5105860;28;20426;-77
2022/04/19 08:59:54;;;;;;;0.10;0.10;;;;;;;;;;5086123;28;20275;-77
2022/04/19 09:02:23;;;;;;;0.00;0.00;;;;;;;;;;5108439;28;20238;-77
2022/04/19 09:04:51;;;;;;;0.10;0.10;;;;;;;;;;5086292;28;20274;-78
2022/04/19 09:07:18;;;;;;;0.03;0.03;;;;;;;;;;5108128;28;20444;-78
2022/04/19 09:09:57;;;;;;;0.10;0.10;;;;;;;;;;5085662;28;20212;-78
2022/04/19 09:12:25;;;;;;;0.10;0.10;;;;;;;;;;5091929;28;20285;-77
2022/04/19 09:14:55;;;;;;;0.10;0.10;;;;;;;;;;5085811;28;20207;-78
2022/04/19 09:17:30;;;;;;;0.03;0.03;;;;;;;;;;5107826;28;20283;-77
2022/04/19 09:20:07;;;;;;;0.10;0.10;;;;;;;;;;5085435;28;20194;-76
2022/04/19 09:22:34;;;;;;;0.00;0.00;;;;;;;;;;5074115;28;20207;-76
2022/04/19 09:25:13;;;;;;;0.08;0.08;;;;;;;;;;5085322;28;20204;-77
2022/04/19 09:27:41;;;;;;;0.10;0.10;;;;;;;;;;5083020;28;20242;-78
2022/04/19 09:30:16;;;;;;;0.00;0.00;;;;;;;;;;5074950;28;20203;-77
2022/04/19 09:32:43;;;;;;;0.00;0.00;;;;;;;;;;5115008;28;20207;-78
2022/04/19 09:35:10;;;;;;;0.10;0.10;;;;;;;;;;5076158;28;20350;-77
2022/04/19 09:37:36;;;;;;;0.05;0.05;;;;;;;;;;5116433;28;20244;-77
2022/04/19 09:40:04;;;;;;;0.10;0.10;;;;;;;;;;5085136;28;20216;-77
2022/04/19 09:42:30;;;;;;;0.00;0.00;;;;;;;;;;5073287;28;20278;-76
2022/04/19 09:44:58;;;;;;;0.00;0.00;;;;;;;;;;5084586;28;20441;-77
2022/04/19 09:47:26;;;;;;;0.00;0.00;;;;;;;;;;5106907;28;20553;-77
2022/04/19 09:49:53;;;;;;;0.00;0.00;;;;;;;;;;5084510;28;20244;-74
2022/04/19 09:52:43;;;;;;;0.00;0.00;;;;;;;;;;5106670;28;20239;-72
2022/04/19 09:55:11;;;;;;;0.05;0.05;;;;;;;;;;5075302;28;20501;-72
2022/04/19 09:57:38;;;;;;;0.00;0.00;;;;;;;;;;5115571;28;20209;-72
2022/04/19 10:00:07;;;;;;;0.00;0.00;;;;;;;;;;5084427;28;20237;-72
2022/04/19 10:08:21;;;;;;;0.00;0.00;;;;;;;;;;5108145;28;20237;-72
2022/04/19 10:10:48;;;;;;;0.10;0.10;;;;;;;;;;5085432;28;20237;-72
2022/04/19 10:13:18;;;;;;;0.00;0.00;;;;;;;;;;5104612;28;20328;-71
2022/04/19 10:15:46;;;;;;;0.00;0.00;;;;;;;;;;5084635;28;20245;-71
2022/04/19 10:18:13;;;;;;;0.10;0.10;;;;;;;;;;5105232;28;20210;-71
2022/04/19 10:20:40;;;;;;;0.00;0.00;;;;;;;;;;5082839;28;20247;-72
2022/04/19 10:23:09;;;;;;;0.00;0.00;;;;;;;;;;5106536;28;20278;-71
2022/04/19 10:25:44;;;;;;;0.00;0.00;;;;;;;;;;5080087;28;20484;-78
2022/04/19 10:28:12;;;;;;;0.00;0.00;;;;;;;;;;5107519;28;20226;-81
2022/04/19 10:30:39;;;;;;;0.00;0.00;;;;;;;;;;5083648;28;20238;-79
2022/04/19 10:33:20;;;;;;;0.00;0.00;;;;;;;;;;5108081;28;20238;-83
2022/04/19 10:36:02;;;;;;;0.00;0.00;;;;;;;;;;5085775;28;20250;-80
2022/04/19 10:38:29;;;;;;;0.00;0.00;;;;;;;;;;5100673;28;20507;-83
2022/04/19 10:40:56;;;;;;;0.00;0.00;;;;;;;;;;5087851;28;20229;-71
2022/04/19 10:43:23;;;;;;;0.00;0.00;;;;;;;;;;5102135;28;20212;-72
2022/04/19 10:45:51;;;;;;;0.00;0.00;;;;;;;;;;5083829;28;20245;-73
2022/04/19 10:48:17;;;;;;;0.03;0.03;;;;;;;;;;5104864;28;20211;-75
2022/04/19 10:50:50;;;;;;;0.00;0.00;;;;;;;;;;5083412;28;20373;-77
2022/04/19 10:53:17;;;;;;;0.10;0.10;;;;;;;;;;5103967;28;20238;-76
2022/04/19 10:55:57;;;;;;;0.00;0.00;;;;;;;;;;5083534;28;20505;-76
2022/04/19 10:58:38;;;;;;;0.00;0.00;;;;;;;;;;5101801;28;20207;-80
2022/04/19 11:01:05;;;;;;;0.00;0.00;;;;;;;;;;5089753;28;20241;-79
2022/04/19 11:03:46;;;;;;;0.00;0.00;;;;;;;;;;5099581;28;20326;-79
2022/04/19 11:06:28;;;;;;;0.00;0.00;;;;;;;;;;5091286;28;20260;-79
2022/04/19 11:09:05;;;;;;;0.10;0.10;;;;;;;;;;5094122;28;20382;-81
2022/04/19 11:11:47;;;;;;;0.00;0.00;;;;;;;;;;5096919;28;20237;-80
2022/04/19 11:14:18;;;;;;;0.00;0.00;;;;;;;;;;5088479;28;20223;-81
2022/04/19 11:16:47;;;;;;;0.00;0.00;;;;;;;;;;5099813;28;20245;-78
2022/04/19 11:19:14;;;;;;;0.00;0.00;;;;;;;;;;5088407;28;20207;-71
2022/04/19 11:21:47;;;;;;;0.10;0.10;;;;;;;;;;5098164;28;20235;-71
2022/04/19 11:24:14;;;;;;;0.10;0.10;;;;;;;;;;5088100;28;20212;-75
2022/04/19 11:27:09;;;;;;;0.10;0.10;;;;;;;;;;5087841;28;20513;-75
2022/04/19 11:29:50;;;;;;;0.05;0.05;;;;;;;;;;5084107;28;20203;-77
2022/04/19 11:32:21;;;;;;;0.10;0.10;;;;;;;;;;5104728;28;20297;-76
2022/04/19 11:34:57;;;;;;;0.10;0.10;;;;;;;;;;5082660;28;20203;-76
2022/04/19 11:37:24;;;;;;;0.10;0.10;;;;;;;;;;5105049;28;20283;-75
2022/04/19 11:48:06;;;;;;;0.10;0.10;;;;;;;;;;5106195;28;20223;-77
2022/04/19 11:50:37;;;;;;;0.00;0.00;;;;;;;;;;5079479;28;20594;-76
2022/04/19 11:53:03;;;;;;;0.10;0.10;;;;;;;;;;5107003;28;20399;-75
2022/04/19 11:55:30;;;;;;;0.10;0.10;;;;;;;;;;5082693;28;20265;-77
2022/04/19 11:58:03;;;;;;;0.10;0.10;;;;;;;;;;5113343;28;20201;-76
2022/04/19 12:00:31;;;;;;;0.00;0.00;;;;;;;;;;5082353;28;21575;-77
2022/04/19 12:02:58;;;;;;;0.10;0.10;;;;;;;;;;5112730;28;20251;-76
2022/04/19 12:05:25;;;;;;;0.10;0.10;;;;;;;;;;5080683;28;20401;-76
2022/04/19 12:07:52;;;;;;;0.10;0.10;;;;;;;;;;5114051;28;20184;-75
2022/04/19 12:10:19;;;;;;;0.10;0.10;;;;;;;;;;5079899;28;20205;-75
2022/04/19 12:12:46;;;;;;;0.10;0.10;;;;;;;;;;5114681;28;20222;-76
2022/04/19 12:15:13;;;;;;;0.10;0.10;;;;;;;;;;5078484;28;20232;-76
2022/04/19 12:17:45;;;;;;;0.10;0.10;;;;;;;;;;5116451;28;20198;-76
2022/04/19 12:20:14;;;;;;;0.10;0.10;;;;;;;;;;5077666;28;20275;-76
2022/04/19 12:22:47;;;;;;;0.00;0.00;;;;;;;;;;5116767;28;20188;-77
2022/04/19 12:25:23;;;;;;;0.10;0.10;;;;;;;;;;5078073;28;20223;-75
2022/04/19 12:27:53;;;;;;;0.00;0.00;;;;;;;;;;5113959;28;20205;-76
2022/04/19 12:30:20;;;;;;;0.10;0.10;;;;;;;;;;5079079;28;20410;-76
2022/04/19 12:32:52;;;;;;;0.10;0.10;;;;;;;;;;5114827;28;20411;-76
2022/04/19 12:35:23;;;;;;;0.10;0.10;;;;;;;;;;5079220;28;20242;-76
2022/04/19 12:41:09;;;;;;;0.10;0.10;;;;;;;;;;5063321;28;20577;-77
2022/04/19 12:43:47;;;;;;;0.00;0.00;;;;;;;;;;5073566;28;20458;-76
2022/04/19 12:46:14;;;;;;;0.00;0.00;;;;;;;;;;5073184;28;20244;-75
2022/04/19 12:48:52;;;;;;;0.10;0.10;;;;;;;;;;5083725;28;20219;-77
2022/04/19 12:51:22;;;;;;;0.10;0.10;;;;;;;;;;5072951;28;20244;-76
2022/04/19 12:54:00;;;;;;;0.10;0.10;;;;;;;;;;5083825;28;20278;-78
2022/04/19 12:56:39;;;;;;;0.10;0.10;;;;;;;;;;5073262;28;20357;-76
2022/04/19 12:59:06;;;;;;;0.10;0.10;;;;;;;;;;5083509;28;20200;-76
2022/04/19 13:01:33;;;;;;;0.10;0.10;;;;;;;;;;5098024;28;20241;-77
2022/04/19 13:04:01;;;;;;;0.10;0.10;;;;;;;;;;5093552;28;20207;-77
2022/04/19 13:14:39;;;;;;;0.10;0.10;;;;;;;;;;5085250;28;20192;-76
2022/04/19 13:17:06;;;;;;;0.10;0.10;;;;;;;;;;5107558;28;20312;-76
2022/04/19 13:19:35;;;;;;;0.10;0.10;;;;;;;;;;5085392;28;20265;-76
2022/04/19 13:22:02;;;;;;;0.10;0.10;;;;;;;;;;5106125;28;20272;-76
2022/04/19 13:24:29;;;;;;;0.10;0.10;;;;;;;;;;5085761;28;20400;-76
2022/04/19 13:26:56;;;;;;;0.10;0.10;;;;;;;;;;5104224;28;20260;-76
2022/04/19 13:29:22;;;;;;;0.03;0.03;;;;;;;;;;5087656;28;20275;-76
2022/04/19 13:31:49;;;;;;;0.00;0.00;;;;;;;;;;5102379;28;20240;-76
2022/04/19 13:34:15;;;;;;;0.10;0.10;;;;;;;;;;5089279;28;20197;-76
2022/04/19 13:36:44;;;;;;;0.10;0.10;;;;;;;;;;5100114;28;20476;-76
2022/04/19 13:39:10;;;;;;;0.10;0.10;;;;;;;;;;5090963;28;20250;-76
2022/04/19 13:41:41;;;;;;;0.10;0.10;;;;;;;;;;5098676;28;20252;-76
2022/04/19 13:44:08;;;;;;;0.00;0.00;;;;;;;;;;5091159;28;20236;-75
2022/04/19 13:46:34;;;;;;;0.10;0.10;;;;;;;;;;5098211;28;20245;-75
2022/04/19 13:49:04;;;;;;;0.10;0.10;;;;;;;;;;5093130;28;20243;-75
2022/04/19 13:51:30;;;;;;;0.10;0.10;;;;;;;;;;5097104;28;20245;-75
2022/04/19 13:53:58;;;;;;;0.10;0.10;;;;;;;;;;5093908;28;20211;-75
2022/04/19 13:56:24;;;;;;;0.00;0.00;;;;;;;;;;5095118;28;20251;-77
2022/04/19 13:58:50;;;;;;;0.10;0.10;;;;;;;;;;5095660;28;20272;-75
2022/04/19 14:01:17;;;;;;;0.10;0.10;;;;;;;;;;5093336;28;20431;-76
2022/04/19 14:03:43;;;;;;;0.10;0.10;;;;;;;;;;5097206;28;20418;-75
2022/04/19 14:06:10;;;;;;;0.10;0.10;;;;;;;;;;5089935;28;20316;-75
2022/04/19 14:08:36;;;;;;;0.10;0.10;;;;;;;;;;5100528;28;20475;-75
2022/04/19 14:11:05;;;;;;;0.00;0.00;;;;;;;;;;5089097;28;20238;-76
2022/04/19 14:13:33;;;;;;;0.10;0.10;;;;;;;;;;5100250;28;20413;-76
2022/04/19 14:15:59;;;;;;;0.10;0.10;;;;;;;;;;5087202;28;20450;-75
2022/04/19 14:18:26;;;;;;;0.10;0.10;;;;;;;;;;5101770;28;20216;-76
2022/04/19 14:20:52;;;;;;;0.00;0.00;;;;;;;;;;5085928;28;20277;-75
2022/04/19 14:23:19;;;;;;;0.10;0.10;;;;;;;;;;5103864;28;20424;-74
2022/04/19 14:25:48;;;;;;;0.10;0.10;;;;;;;;;;5084070;28;20323;-75
2022/04/19 14:28:16;;;;;;;0.10;0.10;;;;;;;;;;5104920;28;20217;-77
2022/04/19 14:33:26;;;;;;;0.10;0.10;;;;;;;;;;5101419;28;20493;-75
2022/04/19 14:35:52;;;;;;;0.10;0.10;;;;;;;;;;5085496;28;20481;-76
2022/04/19 14:38:19;;;;;;;0.00;0.00;;;;;;;;;;5104152;28;20238;-75
2022/04/19 14:40:48;;;;;;;0.10;0.10;;;;;;;;;;5082334;28;20242;-74
2022/04/19 14:43:16;;;;;;;0.00;0.00;;;;;;;;;;5105230;28;20274;-75
2022/04/19 14:45:42;;;;;;;0.00;0.00;;;;;;;;;;5083345;28;20581;-75
2022/04/19 14:48:09;;;;;;;0.10;0.10;;;;;;;;;;5105820;28;20195;-75
2022/04/19 14:52:13;;;;;;;0.10;0.10;;;;;;;;;;5080912;28;20341;-74
2022/04/19 14:53:22;;;;;;;0.10;0.10;;;;;;;;;;5101595;28;20240;-74
2022/04/19 14:55:49;;;;;;;0.03;0.03;;;;;;;;;;5084416;28;20239;-75
2022/04/19 14:58:17;;;;;;;0.10;0.10;;;;;;;;;;5104150;28;20292;-75
2022/04/19 15:00:43;;;;;;;0.10;0.10;;;;;;;;;;5083205;28;20238;-74
2022/04/19 15:03:11;;;;;;;0.10;0.10;;;;;;;;;;5104850;28;20201;-75
2022/04/19 15:05:37;;;;;;;0.10;0.10;;;;;;;;;;5081581;28;20250;-75
2022/04/19 15:08:04;;;;;;;0.10;0.10;;;;;;;;;;5106627;28;20215;-75
2022/04/19 15:10:31;;;;;;;0.10;0.10;;;;;;;;;;5079884;28;20235;-74
2022/04/19 15:12:57;;;;;;;0.10;0.10;;;;;;;;;;5108236;28;20252;-75
2022/04/19 15:15:25;;;;;;;0.00;0.00;;;;;;;;;;5077933;28;20204;-75
2022/04/19 15:17:51;;;;;;;0.10;0.10;;;;;;;;;;5110401;28;20276;-75
2022/04/19 15:20:18;;;;;;;0.10;0.10;;;;;;;;;;5075959;28;20259;-75
2022/04/19 15:22:44;;;;;;;0.10;0.10;;;;;;;;;;5111957;28;20200;-74
2022/04/19 15:25:10;;;;;;;0.00;0.00;;;;;;;;;;5074136;28;20205;-75
2022/04/19 15:27:37;;;;;;;0.10;0.10;;;;;;;;;;5113307;28;20231;-75
2022/04/19 15:30:03;;;;;;;0.10;0.10;;;;;;;;;;5082779;28;20228;-75
2022/04/19 15:32:31;;;;;;;0.10;0.10;;;;;;;;;;5071264;28;20223;-75
2022/04/19 15:34:58;;;;;;;0.10;0.10;;;;;;;;;;5082954;28;20250;-75
2022/04/19 15:37:24;;;;;;;0.03;0.03;;;;;;;;;;5104954;28;20242;-75
2022/04/19 15:39:50;;;;;;;0.10;0.10;;;;;;;;;;5082970;28;20219;-75
2022/04/19 15:42:17;;;;;;;0.10;0.10;;;;;;;;;;5104912;28;20245;-75
2022/04/19 15:44:43;;;;;;;0.00;0.00;;;;;;;;;;5082344;28;20201;-75
2022/04/19 15:47:10;;;;;;;0.10;0.10;;;;;;;;;;5104881;28;20435;-75